Time;durP1;ratioP1;P1;durP2;ratioP2;P2;SDS_P1;SDS_P2;PMS_P1;PMS_P2;Temp;Humidity;BMP_temperature;BMP_pressure;BME280_temperature;BME280_humidity;BME280_pressure;Samples;Min_cycle;Max_cycle;Signal;HPM_P1;HPM_P2
2021/12/09 00:01:16;;;;;;;14.43;12.30;;;13.50;29.70;;;;;;5078401;28;20629;-72
2021/12/09 00:03:43;;;;;;;14.93;11.73;;;13.50;29.70;;;;;;5077234;28;20232;-72
2021/12/09 00:06:13;;;;;;;13.48;12.02;;;13.50;29.70;;;;;;5073900;28;20208;-72
2021/12/09 00:08:41;;;;;;;13.75;11.25;;;13.50;29.80;;;;;;5060896;28;20358;-71
2021/12/09 00:11:10;;;;;;;13.05;10.90;;;13.50;29.70;;;;;;5056500;28;20650;-71
2021/12/09 00:13:37;;;;;;;13.43;11.27;;;13.50;29.70;;;;;;5057880;28;20507;-73
2021/12/09 00:16:05;;;;;;;13.10;10.63;;;13.50;29.70;;;;;;5057057;28;20213;-71
2021/12/09 00:18:33;;;;;;;13.80;11.05;;;13.40;29.60;;;;;;5057399;28;20197;-72
2021/12/09 00:21:00;;;;;;;12.90;10.82;;;13.40;29.70;;;;;;5057111;28;20216;-71
2021/12/09 00:23:30;;;;;;;12.90;11.32;;;13.40;29.70;;;;;;5057101;28;20649;-71
2021/12/09 00:25:57;;;;;;;12.80;10.20;;;13.40;29.70;;;;;;5057228;28;20586;-73
2021/12/09 00:28:25;;;;;;;12.30;10.80;;;13.40;29.70;;;;;;5057562;28;20213;-73
2021/12/09 00:30:52;;;;;;;12.45;10.80;;;13.40;29.70;;;;;;5057189;28;20303;-72
2021/12/09 00:33:20;;;;;;;12.13;10.30;;;13.40;29.60;;;;;;5057009;28;20201;-72
2021/12/09 00:35:53;;;;;;;14.07;11.02;;;13.40;29.70;;;;;;5057894;28;20255;-72
2021/12/09 00:38:33;;;;;;;12.38;10.52;;;13.40;29.70;;;;;;5056703;28;20205;-72
2021/12/09 00:41:04;;;;;;;12.35;10.73;;;13.40;29.60;;;;;;5057377;28;20589;-71
2021/12/09 00:43:31;;;;;;;12.23;10.80;;;13.40;29.70;;;;;;5057606;28;20235;-72
2021/12/09 00:45:59;;;;;;;13.38;11.10;;;13.40;29.70;;;;;;5056841;28;20201;-72
2021/12/09 00:48:28;;;;;;;12.68;11.10;;;13.40;29.60;;;;;;5057411;28;20204;-72
2021/12/09 00:50:57;;;;;;;12.52;11.13;;;13.30;29.60;;;;;;5057140;28;20479;-71
2021/12/09 00:53:25;;;;;;;12.75;10.45;;;13.30;29.60;;;;;;5056870;28;20309;-72
2021/12/09 00:55:53;;;;;;;12.43;10.25;;;13.30;30.20;;;;;;5057279;28;20205;-71
2021/12/09 00:58:22;;;;;;;11.90;10.50;;;13.30;29.60;;;;;;5057734;28;20516;-71
2021/12/09 01:00:50;;;;;;;12.52;10.65;;;13.30;29.60;;;;;;5056921;28;20302;-72
2021/12/09 01:03:18;;;;;;;12.18;10.32;;;13.30;29.60;;;;;;5057114;28;20498;-71
2021/12/09 01:05:46;;;;;;;13.32;10.52;;;13.30;29.60;;;;;;5057276;28;20244;-72
2021/12/09 01:08:14;;;;;;;11.27;9.85;;;13.20;29.60;;;;;;5057382;28;20264;-71
2021/12/09 01:10:42;;;;;;;11.65;10.30;;;13.30;29.60;;;;;;5056772;28;20263;-72
2021/12/09 01:13:12;;;;;;;12.70;10.27;;;13.30;29.60;;;;;;5057070;28;20267;-71
2021/12/09 01:15:41;;;;;;;11.45;9.75;;;13.30;29.60;;;;;;5057456;28;20267;-71
2021/12/09 01:18:09;;;;;;;11.73;10.43;;;13.20;29.50;;;;;;5057480;28;20795;-71
2021/12/09 01:20:36;;;;;;;12.10;10.35;;;13.20;29.50;;;;;;5057105;28;20304;-71
2021/12/09 01:23:04;;;;;;;11.38;10.05;;;13.20;29.50;;;;;;5056932;28;20205;-71
2021/12/09 01:25:36;;;;;;;12.70;10.43;;;13.20;29.60;;;;;;5057118;28;20231;-71
2021/12/09 01:28:06;;;;;;;11.38;10.00;;;13.20;29.50;;;;;;5057231;28;20213;-71
2021/12/09 01:30:34;;;;;;;12.25;10.05;;;13.20;29.50;;;;;;5056881;28;20248;-71
2021/12/09 01:33:05;;;;;;;10.88;9.77;;;13.20;29.50;;;;;;5057457;28;20233;-71
2021/12/09 01:35:35;;;;;;;11.57;10.30;;;13.20;29.50;;;;;;5057123;28;20766;-71
2021/12/09 01:38:10;;;;;;;11.52;10.32;;;13.20;29.50;;;;;;5056849;28;20590;-71
2021/12/09 01:40:39;;;;;;;13.40;10.80;;;13.10;29.50;;;;;;5056749;28;20208;-71
2021/12/09 01:43:07;;;;;;;11.20;10.00;;;13.20;29.50;;;;;;5056561;28;20477;-71
2021/12/09 01:45:35;;;;;;;11.95;10.35;;;13.10;29.50;;;;;;5056824;28;20611;-71
2021/12/09 01:48:04;;;;;;;11.50;10.27;;;13.20;29.50;;;;;;5056823;28;20414;-72
2021/12/09 01:50:33;;;;;;;10.93;9.80;;;13.10;29.50;;;;;;5056975;28;20235;-71
2021/12/09 01:53:00;;;;;;;9.88;8.85;;;13.10;29.50;;;;;;5056473;28;20219;-72
2021/12/09 01:55:28;;;;;;;11.48;10.27;;;13.10;29.50;;;;;;5056633;28;20216;-71
2021/12/09 01:57:55;;;;;;;11.43;10.07;;;13.10;29.50;;;;;;5056971;28;20228;-72
2021/12/09 02:00:26;;;;;;;11.43;9.98;;;13.10;29.50;;;;;;5056243;28;20256;-71
2021/12/09 02:02:54;;;;;;;10.75;9.65;;;13.10;29.50;;;;;;5056758;28;20210;-71
2021/12/09 02:05:24;;;;;;;11.30;9.98;;;13.10;29.50;;;;;;5039862;28;20237;-71
2021/12/09 02:07:51;;;;;;;10.27;9.18;;;13.10;29.50;;;;;;5041053;28;20597;-72
2021/12/09 02:10:21;;;;;;;11.63;9.80;;;13.10;29.50;;;;;;5040612;28;20241;-71
2021/12/09 02:12:50;;;;;;;10.52;9.40;;;13.10;29.50;;;;;;5040248;28;20682;-72
2021/12/09 02:15:20;;;;;;;11.55;9.82;;;13.10;29.50;;;;;;5040436;28;20202;-70
2021/12/09 02:17:48;;;;;;;11.70;9.80;;;13.10;29.50;;;;;;5035240;28;20197;-70
2021/12/09 02:20:16;;;;;;;11.45;9.68;;;13.10;29.50;;;;;;5060331;28;20335;-71
2021/12/09 02:22:48;;;;;;;11.38;9.55;;;13.00;29.50;;;;;;5060165;28;20227;-71
2021/12/09 02:25:16;;;;;;;10.98;9.77;;;13.00;29.50;;;;;;5060159;28;20224;-71
2021/12/09 02:27:45;;;;;;;11.27;10.07;;;13.00;29.50;;;;;;5060378;28;20237;-71
2021/12/09 02:30:13;;;;;;;10.85;9.15;;;13.00;29.50;;;;;;5060585;28;20208;-71
2021/12/09 02:32:41;;;;;;;11.07;9.75;;;13.00;29.50;;;;;;5060231;28;20580;-71
2021/12/09 02:35:09;;;;;;;12.15;9.57;;;13.00;29.50;;;;;;5060332;28;20232;-71
2021/12/09 02:37:37;;;;;;;10.95;9.73;;;13.00;29.50;;;;;;5060313;28;20213;-71
2021/12/09 02:40:09;;;;;;;11.82;9.65;;;13.00;29.50;;;;;;5059653;28;20695;-71
2021/12/09 02:42:37;;;;;;;11.32;10.13;;;13.00;29.50;;;;;;5060050;28;20216;-72
2021/12/09 02:45:06;;;;;;;10.95;9.73;;;13.00;29.50;;;;;;5060024;28;20236;-71
2021/12/09 02:47:35;;;;;;;10.73;9.45;;;13.00;29.50;;;;;;5060080;28;20282;-72
2021/12/09 02:50:04;;;;;;;11.00;9.50;;;13.00;29.50;;;;;;5059730;28;20214;-72
2021/12/09 02:52:32;;;;;;;11.50;9.95;;;13.00;29.50;;;;;;5060013;28;20205;-72
2021/12/09 02:54:59;;;;;;;10.40;9.13;;;13.00;29.50;;;;;;5059585;28;20212;-71
2021/12/09 02:57:28;;;;;;;11.43;10.23;;;12.90;29.50;;;;;;5059552;28;20220;-71
2021/12/09 02:59:56;;;;;;;11.80;9.88;;;12.90;29.50;;;;;;5059729;28;20205;-72
2021/12/09 03:02:23;;;;;;;10.75;9.15;;;12.90;29.40;;;;;;5059882;28;20216;-71
2021/12/09 03:04:52;;;;;;;10.88;9.63;;;12.90;29.40;;;;;;5059429;28;20252;-71
2021/12/09 03:07:26;;;;;;;10.73;9.55;;;12.90;29.50;;;;;;5059583;28;20212;-71
2021/12/09 03:09:59;;;;;;;11.63;9.85;;;12.90;29.50;;;;;;5062247;28;20255;-71
2021/12/09 03:12:33;;;;;;;10.35;9.25;;;12.90;29.50;;;;;;5079710;28;20204;-71
2021/12/09 03:15:01;;;;;;;10.70;9.60;;;12.90;29.50;;;;;;5079230;28;20216;-72
2021/12/09 03:17:30;;;;;;;11.20;9.88;;;12.90;29.50;;;;;;5078790;28;20205;-71
2021/12/09 03:19:58;;;;;;;10.82;9.55;;;12.90;29.50;;;;;;5079189;28;20235;-71
2021/12/09 03:22:25;;;;;;;11.85;10.00;;;12.90;29.50;;;;;;5079177;28;20212;-71
2021/12/09 03:24:53;;;;;;;10.45;9.25;;;12.90;29.50;;;;;;5078447;28;20224;-71
2021/12/09 03:27:21;;;;;;;10.90;9.25;;;12.80;29.40;;;;;;5078021;28;20308;-71
2021/12/09 03:29:50;;;;;;;11.07;9.73;;;12.80;29.50;;;;;;5079109;28;20531;-72
2021/12/09 03:32:19;;;;;;;10.93;9.52;;;12.80;29.50;;;;;;5078095;28;20208;-72
2021/12/09 03:34:47;;;;;;;11.40;10.20;;;12.80;29.40;;;;;;5078456;28;20201;-72
2021/12/09 03:37:18;;;;;;;11.90;9.60;;;12.90;29.50;;;;;;5078204;28;20266;-71
2021/12/09 03:39:46;;;;;;;10.95;9.25;;;12.80;29.40;;;;;;5078904;28;20204;-71
2021/12/09 03:42:16;;;;;;;11.25;10.02;;;12.80;29.50;;;;;;5078817;28;20217;-71
2021/12/09 03:44:45;;;;;;;10.20;8.95;;;12.80;29.50;;;;;;5078226;28;20259;-71
2021/12/09 03:47:16;;;;;;;10.82;9.70;;;12.80;29.50;;;;;;5077871;28;20200;-71
2021/12/09 03:49:44;;;;;;;11.60;10.40;;;12.80;29.50;;;;;;5078294;28;20592;-71
2021/12/09 03:52:12;;;;;;;11.38;9.57;;;12.80;29.50;;;;;;5078473;28;20295;-71
2021/12/09 03:54:41;;;;;;;11.75;9.80;;;12.80;29.50;;;;;;5077956;28;20196;-71
2021/12/09 03:57:10;;;;;;;10.82;9.55;;;12.80;29.50;;;;;;5078490;28;20269;-72
2021/12/09 03:59:38;;;;;;;10.43;9.32;;;12.80;29.50;;;;;;5078162;28;20516;-72
2021/12/09 04:02:06;;;;;;;11.35;9.55;;;12.80;29.50;;;;;;5078300;28;20204;-72
2021/12/09 04:04:35;;;;;;;10.75;9.15;;;12.70;29.40;;;;;;5078247;28;20310;-71
2021/12/09 04:07:03;;;;;;;11.27;10.13;;;12.70;29.40;;;;;;5077561;28;20211;-72
2021/12/09 04:09:30;;;;;;;11.40;9.90;;;12.70;29.50;;;;;;5077387;28;20204;-72
2021/12/09 04:11:58;;;;;;;10.85;9.65;;;12.70;29.40;;;;;;5078063;28;20204;-72
2021/12/09 04:14:26;;;;;;;10.75;9.65;;;12.70;29.50;;;;;;5078018;28;20579;-71
2021/12/09 04:16:54;;;;;;;10.82;9.30;;;12.70;29.50;;;;;;5077662;28;20204;-71
2021/12/09 04:19:21;;;;;;;10.23;9.13;;;12.70;29.50;;;;;;5077901;28;20295;-71
2021/12/09 04:21:50;;;;;;;11.60;9.98;;;12.70;29.50;;;;;;5076111;28;20231;-71
2021/12/09 04:24:18;;;;;;;10.68;9.48;;;12.70;29.50;;;;;;5077241;28;20204;-71
2021/12/09 04:26:50;;;;;;;10.50;9.40;;;12.70;29.40;;;;;;5077366;28;20212;-71
2021/12/09 04:29:19;;;;;;;10.93;9.20;;;12.70;29.50;;;;;;5077193;28;20541;-71
2021/12/09 04:31:48;;;;;;;10.98;9.38;;;12.60;29.40;;;;;;5077554;28;20204;-71
2021/12/09 04:34:17;;;;;;;10.63;9.05;;;12.70;30.00;;;;;;5076948;28;20641;-71
2021/12/09 04:36:45;;;;;;;10.73;9.43;;;12.60;29.40;;;;;;5077323;28;20222;-71
2021/12/09 04:39:14;;;;;;;11.85;9.70;;;12.60;29.40;;;;;;5077277;28;20298;-71
2021/12/09 04:41:42;;;;;;;10.55;9.43;;;12.70;29.50;;;;;;5077651;28;20563;-71
2021/12/09 04:44:10;;;;;;;11.48;9.73;;;12.70;29.50;;;;;;5077107;28;20476;-71
2021/12/09 04:46:38;;;;;;;9.82;8.70;;;12.60;29.40;;;;;;5077300;28;20231;-71
2021/12/09 04:49:06;;;;;;;11.10;9.43;;;12.60;29.50;;;;;;5076623;28;20204;-71
2021/12/09 04:51:34;;;;;;;9.65;8.65;;;12.60;30.00;;;;;;5076945;28;20204;-71
2021/12/09 04:54:02;;;;;;;11.18;9.57;;;12.60;29.40;;;;;;5077079;28;20223;-71
2021/12/09 04:56:31;;;;;;;10.20;9.10;;;12.60;29.50;;;;;;5077129;28;20200;-71
2021/12/09 04:58:58;;;;;;;10.68;9.05;;;12.60;29.40;;;;;;5076403;28;20204;-72
2021/12/09 05:01:26;;;;;;;10.90;9.15;;;12.60;29.50;;;;;;5076678;28;20204;-71
2021/12/09 05:03:53;;;;;;;10.18;9.07;;;12.60;29.50;;;;;;5076529;28;20250;-72
2021/12/09 05:06:21;;;;;;;10.93;9.52;;;12.60;29.50;;;;;;5076682;28;20490;-71
2021/12/09 05:08:51;;;;;;;11.68;9.10;;;12.60;29.50;;;;;;5076722;28;20208;-71
2021/12/09 05:11:32;;;;;;;10.85;9.32;;;12.60;29.50;;;;;;5075780;28;20228;-71
2021/12/09 05:14:01;;;;;;;10.75;9.40;;;12.50;29.40;;;;;;5076645;28;20204;-71
2021/12/09 05:16:29;;;;;;;10.52;9.00;;;12.50;29.40;;;;;;5076601;28;20203;-72
2021/12/09 05:18:58;;;;;;;9.95;8.77;;;12.50;29.50;;;;;;5076827;28;20270;-72
2021/12/09 05:21:29;;;;;;;10.30;9.20;;;12.50;29.50;;;;;;5076239;28;20204;-71
2021/12/09 05:23:58;;;;;;;11.05;9.15;;;12.50;29.40;;;;;;5075693;28;20204;-71
2021/12/09 05:26:30;;;;;;;11.02;9.45;;;12.50;29.50;;;;;;5075778;28;20246;-71
2021/12/09 05:28:58;;;;;;;10.50;9.38;;;12.50;29.50;;;;;;5076540;28;20223;-71
2021/12/09 05:34:21;;;;;;;10.82;9.02;;;12.50;29.50;;;;;;5039395;28;20199;-72
2021/12/09 05:36:49;;;;;;;10.98;9.52;;;12.50;29.50;;;;;;5075779;28;20200;-71
2021/12/09 05:39:17;;;;;;;10.90;9.40;;;12.50;29.50;;;;;;5076435;28;20204;-71
2021/12/09 05:41:46;;;;;;;10.48;9.38;;;12.40;29.50;;;;;;5078944;28;20196;-70
2021/12/09 05:44:15;;;;;;;10.73;9.27;;;12.50;29.50;;;;;;5079551;28;20641;-72
2021/12/09 05:46:46;;;;;;;10.85;9.25;;;12.50;29.50;;;;;;5058859;28;20532;-71
2021/12/09 05:49:15;;;;;;;10.25;9.07;;;12.40;29.50;;;;;;5057574;28;20204;-72
2021/12/09 05:51:44;;;;;;;10.52;9.13;;;12.50;29.50;;;;;;5057671;28;20224;-71
2021/12/09 05:54:12;;;;;;;11.70;9.68;;;12.40;29.50;;;;;;5058769;28;20205;-71
2021/12/09 05:56:39;;;;;;;10.45;9.35;;;12.40;29.50;;;;;;5057820;28;20275;-72
2021/12/09 05:59:08;;;;;;;10.73;8.73;;;12.40;29.50;;;;;;5058219;28;20197;-72
2021/12/09 06:01:36;;;;;;;10.45;9.13;;;12.40;29.50;;;;;;5077481;28;20572;-71
2021/12/09 06:04:05;;;;;;;10.63;8.93;;;12.40;29.50;;;;;;5077944;28;20242;-71
2021/12/09 06:06:33;;;;;;;10.68;9.30;;;12.40;29.50;;;;;;5077935;28;20857;-71
2021/12/09 06:09:01;;;;;;;10.45;9.13;;;12.40;29.50;;;;;;5079696;28;20246;-71
2021/12/09 06:11:28;;;;;;;10.60;8.90;;;12.40;29.50;;;;;;5077657;28;20240;-71
2021/12/09 06:13:56;;;;;;;11.10;9.20;;;12.40;29.50;;;;;;5075648;28;20477;-71
2021/12/09 06:16:24;;;;;;;10.05;8.85;;;12.40;29.50;;;;;;5076932;28;20201;-72
2021/12/09 06:18:52;;;;;;;10.45;9.32;;;12.40;29.50;;;;;;5076112;28;20239;-71
2021/12/09 06:21:22;;;;;;;11.02;9.40;;;12.40;29.50;;;;;;5077209;28;20693;-71
2021/12/09 06:23:50;;;;;;;10.27;9.20;;;12.40;29.50;;;;;;5075782;28;20205;-71
2021/12/09 06:26:17;;;;;;;10.57;9.10;;;12.40;29.50;;;;;;5075784;28;20378;-71
2021/12/09 06:28:44;;;;;;;10.27;9.05;;;12.40;29.50;;;;;;5077240;28;20204;-71
2021/12/09 06:31:13;;;;;;;10.95;8.95;;;12.40;29.50;;;;;;5076766;28;20219;-72
2021/12/09 06:33:40;;;;;;;10.13;9.05;;;12.40;29.60;;;;;;5076553;28;20379;-71
2021/12/09 06:36:07;;;;;;;10.63;9.25;;;12.30;29.40;;;;;;5076095;28;20200;-72
2021/12/09 06:38:36;;;;;;;9.82;8.80;;;12.30;29.50;;;;;;5075306;28;20205;-72
2021/12/09 06:41:03;;;;;;;10.10;8.60;;;12.30;29.40;;;;;;5076518;28;20523;-71
2021/12/09 06:43:31;;;;;;;10.50;9.40;;;12.30;29.50;;;;;;5076511;28;20204;-71
2021/12/09 06:45:59;;;;;;;9.60;8.60;;;12.30;29.50;;;;;;5074870;28;20224;-71
2021/12/09 06:48:26;;;;;;;10.00;8.88;;;12.30;29.50;;;;;;5074398;28;20479;-71
2021/12/09 06:50:53;;;;;;;10.65;9.45;;;12.30;30.00;;;;;;5074270;28;20595;-71
2021/12/09 06:53:20;;;;;;;10.02;8.95;;;12.30;29.50;;;;;;5074862;28;20393;-71
2021/12/09 06:55:49;;;;;;;9.80;8.80;;;12.30;29.50;;;;;;5074821;28;20208;-71
2021/12/09 06:58:18;;;;;;;11.35;9.57;;;12.30;29.50;;;;;;5076655;28;20227;-71
2021/12/09 07:00:46;;;;;;;10.10;9.02;;;12.30;29.50;;;;;;5075805;28;20207;-71
2021/12/09 07:03:16;;;;;;;10.15;8.88;;;12.30;29.50;;;;;;5075578;28;20208;-72
2021/12/09 07:05:44;;;;;;;10.30;9.15;;;12.30;29.40;;;;;;5077093;28;20227;-71
2021/12/09 07:08:12;;;;;;;10.57;9.00;;;12.30;29.50;;;;;;5076352;28;20204;-71
2021/12/09 07:10:39;;;;;;;9.57;8.57;;;12.20;29.50;;;;;;5075252;28;20243;-71
2021/12/09 07:13:08;;;;;;;10.00;9.00;;;12.20;29.50;;;;;;5075851;28;20212;-71
2021/12/09 07:15:35;;;;;;;9.50;8.50;;;12.20;29.50;;;;;;5074774;28;20200;-71
2021/12/09 07:18:03;;;;;;;9.63;8.63;;;12.20;29.50;;;;;;5075541;28;20205;-71
2021/12/09 07:20:32;;;;;;;9.88;8.73;;;12.20;29.50;;;;;;5075862;28;20208;-72
2021/12/09 07:22:59;;;;;;;9.60;8.60;;;12.20;29.50;;;;;;5074664;28;20192;-71
2021/12/09 07:25:28;;;;;;;9.10;8.05;;;12.20;29.50;;;;;;5075340;28;20215;-72
2021/12/09 07:27:56;;;;;;;9.40;8.38;;;12.20;29.50;;;;;;5076014;28;20204;-72
2021/12/09 07:30:25;;;;;;;10.13;8.57;;;12.20;29.50;;;;;;5074681;28;20208;-72
2021/12/09 07:32:53;;;;;;;10.30;9.20;;;12.20;29.50;;;;;;5075280;28;20504;-71
2021/12/09 07:35:20;;;;;;;9.55;8.52;;;12.20;29.50;;;;;;5076012;28;20222;-72
2021/12/09 07:37:47;;;;;;;9.75;8.43;;;12.20;29.50;;;;;;5076234;28;20364;-71
2021/12/09 07:40:18;;;;;;;9.55;8.30;;;12.20;29.50;;;;;;5075396;28;20200;-72
2021/12/09 07:42:45;;;;;;;9.70;8.68;;;12.20;29.50;;;;;;5074905;28;20204;-71
2021/12/09 07:45:13;;;;;;;10.48;8.80;;;12.20;29.50;;;;;;5076356;28;20207;-72
2021/12/09 07:47:43;;;;;;;10.23;8.63;;;12.20;29.50;;;;;;5076756;28;20227;-71
2021/12/09 07:50:14;;;;;;;9.15;7.80;;;12.10;29.50;;;;;;5075696;28;20268;-71
2021/12/09 07:52:42;;;;;;;9.57;8.40;;;12.10;29.50;;;;;;5075518;28;20311;-71
2021/12/09 07:55:10;;;;;;;10.13;8.38;;;12.10;29.40;;;;;;5076806;28;20257;-71
2021/12/09 07:57:38;;;;;;;9.13;8.23;;;12.10;29.50;;;;;;5075395;28;20196;-71
2021/12/09 08:00:08;;;;;;;10.13;8.85;;;12.10;29.50;;;;;;5075514;28;20204;-72
2021/12/09 08:02:35;;;;;;;9.88;8.43;;;12.10;29.50;;;;;;5075257;28;20584;-71
2021/12/09 08:05:04;;;;;;;9.43;8.45;;;12.10;29.50;;;;;;5074513;28;20531;-71
2021/12/09 08:07:32;;;;;;;9.75;7.93;;;12.10;29.50;;;;;;5074325;28;20220;-72
2021/12/09 08:09:59;;;;;;;9.32;8.30;;;12.10;29.50;;;;;;5074651;28;20240;-72
2021/12/09 08:12:26;;;;;;;10.63;8.63;;;12.10;29.50;;;;;;5074799;28;20234;-71
2021/12/09 08:14:53;;;;;;;8.63;7.78;;;12.10;29.50;;;;;;5074613;28;20204;-71
2021/12/09 08:20:08;;;;;;;9.30;8.30;;;12.10;29.50;;;;;;5074738;28;20265;-72
2021/12/09 08:22:35;;;;;;;9.15;8.20;;;12.10;29.50;;;;;;5073999;28;20580;-71
2021/12/09 08:25:03;;;;;;;8.85;7.95;;;12.10;29.50;;;;;;5074626;28;20279;-72
2021/12/09 08:27:30;;;;;;;9.30;8.30;;;12.10;29.50;;;;;;5074838;28;20220;-71
2021/12/09 08:30:00;;;;;;;9.32;8.32;;;12.00;29.50;;;;;;5075505;28;20208;-71
2021/12/09 08:32:28;;;;;;;9.20;8.20;;;12.00;29.50;;;;;;5074395;28;20212;-72
2021/12/09 08:34:55;;;;;;;9.68;8.68;;;12.00;29.40;;;;;;5074369;28;20212;-71
2021/12/09 08:37:23;;;;;;;9.27;8.15;;;12.00;29.40;;;;;;5074452;28;20599;-72
2021/12/09 08:39:50;;;;;;;9.52;8.20;;;11.90;29.40;;;;;;5074559;28;20230;-71
2021/12/09 08:42:18;;;;;;;8.82;7.50;;;12.00;29.50;;;;;;5074626;28;20203;-71
2021/12/09 08:44:46;;;;;;;9.80;8.48;;;11.90;29.40;;;;;;5074720;28;20231;-71
2021/12/09 08:47:13;;;;;;;14.73;13.23;;;12.00;29.50;;;;;;5073832;28;20661;-72
2021/12/09 08:49:40;;;;;;;117.82;106.35;;;12.00;29.60;;;;;;5074038;28;20207;-71
2021/12/09 08:52:08;;;;;;;92.30;83.30;;;12.00;30.20;;;;;;5076064;28;20503;-71
2021/12/09 08:54:37;;;;;;;75.90;68.32;;;12.00;29.70;;;;;;5076133;28;20204;-72
2021/12/09 08:57:04;;;;;;;70.45;63.47;;;12.00;29.80;;;;;;5075419;28;20211;-71
2021/12/09 08:59:32;;;;;;;67.30;60.65;;;12.00;29.90;;;;;;5074858;28;20192;-71
2021/12/09 09:01:59;;;;;;;63.10;57.08;;;12.10;30.00;;;;;;5075451;28;20211;-72
2021/12/09 09:04:26;;;;;;;62.17;56.17;;;12.00;29.90;;;;;;5075077;28;20200;-71
2021/12/09 09:06:55;;;;;;;59.08;53.30;;;12.10;30.00;;;;;;5074754;28;20479;-71
2021/12/09 09:09:24;;;;;;;56.25;50.85;;;12.10;30.20;;;;;;5075731;28;20204;-71
2021/12/09 09:11:54;;;;;;;54.38;49.05;;;12.10;30.20;;;;;;5074966;28;20631;-71
2021/12/09 09:14:21;;;;;;;52.78;47.78;;;12.10;30.20;;;;;;5073451;28;20510;-73
2021/12/09 09:16:49;;;;;;;50.38;45.40;;;12.10;30.20;;;;;;5074260;28;20200;-72
2021/12/09 09:19:17;;;;;;;47.50;42.90;;;12.10;30.50;;;;;;5073604;28;20249;-71
2021/12/09 09:21:44;;;;;;;48.03;43.33;;;12.10;30.40;;;;;;5073536;28;20219;-71
2021/12/09 09:24:12;;;;;;;45.20;40.88;;;12.20;30.50;;;;;;5073317;28;20526;-71
2021/12/09 09:26:39;;;;;;;42.55;38.55;;;12.10;30.20;;;;;;5073940;28;20224;-72
2021/12/09 09:29:08;;;;;;;41.60;37.47;;;12.10;30.40;;;;;;5073451;28;20206;-72
2021/12/09 09:31:36;;;;;;;41.25;37.20;;;12.20;30.60;;;;;;5073439;28;20197;-71
2021/12/09 09:34:03;;;;;;;40.58;36.67;;;12.20;30.40;;;;;;5074772;28;20211;-71
2021/12/09 09:36:31;;;;;;;38.50;34.80;;;12.20;30.40;;;;;;5074427;28;20200;-71
2021/12/09 09:39:06;;;;;;;36.53;32.75;;;12.20;30.40;;;;;;5075021;28;20698;-72
2021/12/09 09:41:35;;;;;;;36.33;32.78;;;12.20;30.50;;;;;;5074338;28;20196;-71
2021/12/09 09:44:12;;;;;;;37.30;33.50;;;12.20;30.40;;;;;;5074904;28;20218;-71
2021/12/09 09:46:41;;;;;;;43.95;39.42;;;12.20;30.40;;;;;;5073518;28;20234;-71
2021/12/09 09:49:09;;;;;;;41.88;37.78;;;12.20;30.50;;;;;;5074628;28;20211;-71
2021/12/09 09:51:38;;;;;;;39.83;35.78;;;12.20;30.40;;;;;;5074904;28;20626;-71
2021/12/09 09:54:06;;;;;;;37.00;33.30;;;12.20;30.40;;;;;;5074682;28;20215;-71
2021/12/09 09:56:36;;;;;;;37.42;33.65;;;12.20;30.40;;;;;;5074204;28;20192;-71
2021/12/09 09:59:07;;;;;;;36.63;32.80;;;12.20;30.50;;;;;;5074588;28;20201;-71
2021/12/09 10:01:36;;;;;;;36.20;32.30;;;12.20;30.70;;;;;;5074276;28;20211;-71
2021/12/09 10:04:14;;;;;;;36.28;32.50;;;12.20;30.80;;;;;;5074596;28;20215;-71
2021/12/09 10:06:43;;;;;;;35.78;31.77;;;12.20;30.40;;;;;;5073751;28;20297;-71
2021/12/09 10:09:13;;;;;;;34.17;30.60;;;12.20;30.40;;;;;;5074633;28;20205;-71
2021/12/09 10:11:41;;;;;;;31.90;28.73;;;12.20;30.50;;;;;;5074264;28;20236;-71
2021/12/09 10:14:14;;;;;;;32.80;29.60;;;12.30;30.40;;;;;;5074590;28;20204;-71
2021/12/09 10:16:42;;;;;;;30.80;27.70;;;12.30;30.50;;;;;;5074142;28;20211;-71
2021/12/09 10:19:19;;;;;;;28.40;25.60;;;12.30;30.50;;;;;;5074573;28;20657;-71
2021/12/09 10:21:47;;;;;;;28.55;25.75;;;12.30;30.50;;;;;;5074174;28;20211;-71
2021/12/09 10:24:16;;;;;;;28.15;25.35;;;12.30;30.50;;;;;;5074713;28;20259;-71
2021/12/09 10:26:43;;;;;;;28.08;25.25;;;12.30;30.50;;;;;;5079024;28;20228;-72
2021/12/09 10:29:16;;;;;;;29.48;26.58;;;12.30;30.50;;;;;;5078055;28;20699;-71
2021/12/09 10:31:48;;;;;;;31.17;27.88;;;12.30;30.40;;;;;;5071644;28;20201;-71
2021/12/09 10:34:34;;;;;;;31.70;28.38;;;12.30;30.30;;;;;;5077267;28;20232;-71
2021/12/09 10:37:14;;;;;;;31.25;28.10;;;12.30;30.30;;;;;;5078233;28;20273;-71
2021/12/09 10:39:46;;;;;;;29.35;26.25;;;12.30;30.30;;;;;;5077784;28;20204;-72
2021/12/09 10:42:17;;;;;;;28.60;25.45;;;12.30;30.20;;;;;;5077231;28;20236;-71
2021/12/09 10:44:55;;;;;;;27.83;25.02;;;12.30;30.20;;;;;;5078637;28;20602;-71
2021/12/09 10:47:50;;;;;;;27.63;24.63;;;12.30;30.20;;;;;;5077532;28;20275;-71
2021/12/09 10:50:29;;;;;;;25.63;23.00;;;12.30;30.10;;;;;;5077398;28;20197;-70
2021/12/09 10:53:03;;;;;;;25.92;23.23;;;12.30;30.20;;;;;;5077593;28;20249;-71
2021/12/09 10:55:33;;;;;;;24.92;22.33;;;12.30;30.00;;;;;;5078344;28;20203;-70
2021/12/09 10:58:07;;;;;;;22.98;20.65;;;12.30;30.40;;;;;;5074327;28;20322;-71
2021/12/09 11:00:41;;;;;;;24.23;21.73;;;12.30;30.40;;;;;;5078193;28;20204;-71
2021/12/09 11:03:13;;;;;;;22.63;20.33;;;12.30;31.20;;;;;;5077321;28;20211;-71
2021/12/09 11:05:45;;;;;;;22.80;20.20;;;12.30;31.20;;;;;;5077373;28;20204;-70
2021/12/09 11:08:19;;;;;;;20.92;18.80;;;12.40;31.30;;;;;;5076569;28;20232;-71
2021/12/09 11:10:48;;;;;;;22.23;19.65;;;12.40;31.30;;;;;;5076731;28;20239;-70
2021/12/09 11:13:19;;;;;;;20.20;17.92;;;12.40;31.30;;;;;;5077063;28;20269;-70
2021/12/09 11:15:54;;;;;;;20.73;18.58;;;12.40;31.30;;;;;;5076721;28;20262;-71
2021/12/09 11:18:41;;;;;;;19.83;17.85;;;12.40;31.30;;;;;;5076382;28;20216;-70
2021/12/09 11:21:15;;;;;;;20.35;18.35;;;12.40;31.30;;;;;;5076858;28;20469;-71
2021/12/09 11:23:46;;;;;;;20.92;18.77;;;12.40;31.30;;;;;;5075882;28;20200;-68
2021/12/09 11:26:37;;;;;;;19.92;17.92;;;12.50;31.40;;;;;;5076904;28;20608;-69
2021/12/09 11:29:09;;;;;;;20.08;18.13;;;12.50;31.40;;;;;;5072544;28;20195;-70
2021/12/09 11:31:52;;;;;;;19.73;17.83;;;12.50;31.40;;;;;;5075231;28;20197;-70
2021/12/09 11:34:23;;;;;;;21.20;19.10;;;12.50;31.40;;;;;;5074084;28;20192;-70
2021/12/09 11:36:58;;;;;;;20.33;18.23;;;12.50;31.40;;;;;;5074680;28;20208;-71
2021/12/09 11:39:32;;;;;;;22.55;20.33;;;12.50;31.40;;;;;;5076017;28;20649;-70
2021/12/09 11:42:17;;;;;;;24.23;21.73;;;12.60;31.50;;;;;;5076122;28;20566;-70
2021/12/09 11:44:45;;;;;;;22.50;20.25;;;12.60;31.50;;;;;;5076078;28;20207;-70
2021/12/09 11:47:13;;;;;;;21.38;19.23;;;12.60;31.50;;;;;;5075885;28;20220;-70
2021/12/09 11:49:43;;;;;;;20.75;18.75;;;12.60;31.50;;;;;;5075518;28;20731;-70
2021/12/09 11:52:12;;;;;;;23.83;19.52;;;12.60;31.50;;;;;;5076220;28;20208;-71
2021/12/09 11:54:40;;;;;;;19.88;17.95;;;12.60;31.50;;;;;;5075907;28;20265;-70
2021/12/09 11:57:16;;;;;;;19.70;17.60;;;12.60;31.50;;;;;;5076057;28;20300;-71
2021/12/09 12:11:38;;;;;;;17.00;15.40;;;12.70;31.60;;;;;;5075174;28;20239;-70
2021/12/09 12:14:15;;;;;;;15.40;13.90;;;12.70;31.60;;;;;;5055252;28;20213;-70
2021/12/09 12:16:59;;;;;;;17.63;14.70;;;12.70;31.60;;;;;;5055554;28;20240;-70
2021/12/09 12:19:55;;;;;;;16.67;14.85;;;12.70;31.60;;;;;;5055217;28;20205;-70
2021/12/09 12:22:47;;;;;;;15.50;14.00;;;12.70;31.60;;;;;;5054914;28;20251;-70
2021/12/09 12:28:32;;;;;;;20.35;18.27;;;12.70;31.60;;;;;;5053880;28;20582;-70
2021/12/09 12:31:14;;;;;;;18.80;16.95;;;12.70;31.60;;;;;;5052724;28;20204;-71
2021/12/09 12:37:11;;;;;;;17.17;15.57;;;12.70;31.40;;;;;;5053013;28;20195;-70
2021/12/09 12:40:00;;;;;;;18.02;16.33;;;12.70;31.60;;;;;;5058165;28;20197;-70
2021/12/09 12:42:45;;;;;;;16.27;14.68;;;12.70;31.30;;;;;;5074042;28;20215;-70
2021/12/09 12:45:24;;;;;;;17.00;15.30;;;12.70;31.20;;;;;;5073120;28;20364;-70
2021/12/09 12:47:57;;;;;;;16.77;15.07;;;12.70;31.20;;;;;;5072440;28;20269;-70
2021/12/09 12:50:24;;;;;;;15.85;14.25;;;12.70;31.00;;;;;;5072921;28;20204;-70
2021/12/09 12:52:55;;;;;;;16.17;14.45;;;12.70;31.00;;;;;;5073530;28;20196;-70
2021/12/09 12:55:26;;;;;;;14.40;13.02;;;12.70;30.90;;;;;;5074478;28;20205;-70
2021/12/09 12:57:56;;;;;;;14.93;13.48;;;12.70;30.90;;;;;;5073466;28;20200;-70
2021/12/09 13:00:29;;;;;;;13.35;12.05;;;12.70;30.90;;;;;;5072817;28;20211;-70
2021/12/09 13:03:18;;;;;;;13.50;12.13;;;12.70;30.80;;;;;;5072621;28;20282;-70
2021/12/09 13:05:59;;;;;;;13.98;12.63;;;12.70;30.70;;;;;;5072570;28;20553;-70
2021/12/09 13:08:49;;;;;;;13.02;11.75;;;12.70;30.80;;;;;;5071531;28;20219;-70
2021/12/09 13:11:25;;;;;;;13.05;11.85;;;12.70;30.80;;;;;;5071736;28;20232;-70